createdAt,value
2022-10-15T00:00:24.468Z,91.47
2022-10-15T00:02:55.764Z,91.75
2022-10-15T00:05:27.085Z,91.18
2022-10-15T00:07:58.361Z,91.68
2022-10-15T00:10:29.684Z,91.61
2022-10-15T00:15:38.139Z,91.44
2022-10-15T00:18:09.413Z,91.29
2022-10-15T00:20:41.905Z,91.94
2022-10-15T00:23:13.153Z,91.74
2022-10-15T00:25:44.414Z,91.87
2022-10-15T00:28:15.818Z,91.98
2022-10-15T00:30:47.060Z,92.20
2022-10-15T00:33:18.308Z,91.60
2022-10-15T00:36:01.576Z,92.11
2022-10-15T00:38:33.791Z,91.99
2022-10-15T00:41:06.925Z,91.95
2022-10-15T00:43:49.988Z,92.11
2022-10-15T00:46:35.099Z,92.16
2022-10-15T00:49:26.380Z,92.46
2022-10-15T00:52:03.009Z,92.41
2022-10-15T00:54:40.634Z,92.50
2022-10-15T00:57:13.261Z,92.30
2022-10-15T00:59:50.789Z,92.39
2022-10-15T01:02:22.339Z,92.67
2022-10-15T01:04:55.673Z,92.54
2022-10-15T01:07:27.068Z,92.48
2022-10-15T01:09:58.571Z,92.58
2022-10-15T01:12:45.165Z,92.36
2022-10-15T01:15:16.351Z,92.18
2022-10-15T01:17:55.116Z,92.61
2022-10-15T01:20:49.938Z,92.13
2022-10-15T01:23:39.427Z,92.35
2022-10-15T01:26:24.480Z,92.23
2022-10-15T01:29:31.224Z,92.36
2022-10-15T01:32:11.471Z,91.94
2022-10-15T01:35:19.834Z,92.28
2022-10-15T01:38:09.813Z,92.35
2022-10-15T01:40:47.041Z,92.63
2022-10-15T01:43:28.992Z,92.36
2022-10-15T01:46:09.279Z,92.31
2022-10-15T01:48:41.738Z,92.42
2022-10-15T01:51:16.834Z,91.84
2022-10-15T01:53:50.469Z,91.85
2022-10-15T01:56:24.334Z,91.51
2022-10-15T01:58:56.594Z,91.88
2022-10-15T02:01:28.460Z,91.99
2022-10-15T02:03:59.871Z,91.65
2022-10-15T02:06:43.926Z,92.09
2022-10-15T02:09:28.332Z,91.96
2022-10-15T02:12:27.268Z,91.70
2022-10-15T02:15:27.456Z,91.80
2022-10-15T02:18:06.123Z,91.42
2022-10-15T02:20:51.046Z,91.52
2022-10-15T02:23:37.572Z,91.80
2022-10-15T02:26:12.153Z,92.19
2022-10-15T02:28:50.261Z,92.26
2022-10-15T02:31:23.768Z,92.08
2022-10-15T02:34:00.726Z,92.05
2022-10-15T02:36:32.784Z,92.10
2022-10-15T02:39:05.404Z,92.31
2022-10-15T02:41:36.981Z,92.19
2022-10-15T02:44:08.324Z,92.34
2022-10-15T02:46:39.638Z,92.15
2022-10-15T02:49:10.911Z,92.28
2022-10-15T02:51:42.205Z,92.03
2022-10-15T02:54:13.497Z,92.10
2022-10-15T02:56:44.772Z,92.21
2022-10-15T02:59:16.201Z,92.47
2022-10-15T03:01:47.602Z,92.06
2022-10-15T03:04:18.862Z,92.11
2022-10-15T03:06:50.790Z,92.20
2022-10-15T03:09:22.106Z,92.15
2022-10-15T03:11:53.369Z,92.27
2022-10-15T03:14:24.786Z,92.09
2022-10-15T03:16:56.113Z,92.48
2022-10-15T03:19:27.378Z,92.53
2022-10-15T03:21:58.706Z,92.96
2022-10-15T03:24:30.458Z,92.55
2022-10-15T03:27:01.810Z,92.66
2022-10-15T03:29:33.082Z,92.30
2022-10-15T03:32:04.557Z,92.37
2022-10-15T03:34:35.824Z,92.34
2022-10-15T03:37:07.104Z,92.86
2022-10-15T03:39:38.354Z,91.97
2022-10-15T03:42:09.625Z,92.30
2022-10-15T03:44:41.104Z,92.54
2022-10-15T03:47:12.452Z,92.61
2022-10-15T03:49:43.783Z,92.23
2022-10-15T03:52:15.566Z,92.52
2022-10-15T03:54:46.833Z,92.05
2022-10-15T03:57:18.154Z,92.54
2022-10-15T03:59:49.536Z,92.23
2022-10-15T04:02:20.995Z,92.36
2022-10-15T04:04:53.418Z,91.92
2022-10-15T04:07:25.225Z,92.08
2022-10-15T04:09:56.481Z,92.07
2022-10-15T04:12:27.873Z,92.25
2022-10-15T04:14:59.143Z,91.83
2022-10-15T04:17:30.508Z,92.13
2022-10-15T04:20:01.857Z,91.76
2022-10-15T04:22:33.184Z,91.71
2022-10-15T04:25:05.283Z,91.52
2022-10-15T04:27:36.932Z,91.49
2022-10-15T04:30:08.936Z,91.64
2022-10-15T04:32:40.302Z,92.04
2022-10-15T04:35:11.886Z,91.85
2022-10-15T04:37:43.151Z,91.63
2022-10-15T04:40:15.098Z,91.81
2022-10-15T04:42:46.356Z,91.47
2022-10-15T04:45:17.852Z,91.42
2022-10-15T04:47:49.251Z,91.70
2022-10-15T04:50:20.500Z,91.14
2022-10-15T04:52:51.794Z,91.03
2022-10-15T04:55:23.040Z,91.10
2022-10-15T04:57:54.381Z,91.25
2022-10-15T05:00:25.803Z,91.27
2022-10-15T05:02:57.102Z,91.04
2022-10-15T05:05:28.346Z,91.19
2022-10-15T05:08:04.384Z,90.74
2022-10-15T05:10:35.755Z,91.05
2022-10-15T05:13:07.191Z,91.25
2022-10-15T05:15:38.440Z,90.92
2022-10-15T05:18:09.846Z,90.85
2022-10-15T05:20:41.093Z,90.57
2022-10-15T05:23:12.363Z,90.92
2022-10-15T05:25:43.630Z,90.54
2022-10-15T05:28:14.882Z,90.40
2022-10-15T05:30:46.226Z,90.74
2022-10-15T05:33:17.504Z,91.25
2022-10-15T05:35:48.814Z,90.89
2022-10-15T05:38:20.082Z,91.04
2022-10-15T05:40:51.320Z,90.32
2022-10-15T05:43:22.682Z,90.85
2022-10-15T05:45:54.957Z,90.59
2022-10-15T05:48:26.228Z,90.33
2022-10-15T05:51:10.819Z,90.55
2022-10-15T05:53:43.213Z,90.67
2022-10-15T05:56:16.663Z,90.26
2022-10-15T05:58:47.962Z,90.57
2022-10-15T06:01:19.792Z,90.35
2022-10-15T06:03:51.354Z,90.27
2022-10-15T06:06:25.048Z,90.18
2022-10-15T06:08:58.448Z,90.00
2022-10-15T06:11:29.784Z,90.17
2022-10-15T06:14:01.032Z,90.05
2022-10-15T06:16:33.262Z,90.05
2022-10-15T06:19:04.680Z,89.95
2022-10-15T06:21:35.933Z,90.13
2022-10-15T06:24:09.922Z,90.22
2022-10-15T06:26:41.588Z,90.08
2022-10-15T06:29:12.936Z,89.86
2022-10-15T06:31:44.197Z,89.50
2022-10-15T06:34:15.549Z,89.71
2022-10-15T06:36:46.797Z,88.79
2022-10-15T06:39:18.194Z,89.74
2022-10-15T06:41:49.451Z,89.45
2022-10-15T06:44:20.797Z,89.53
2022-10-15T06:46:52.079Z,89.20
2022-10-15T06:49:23.362Z,89.83
2022-10-15T06:51:55.458Z,89.64
2022-10-15T06:54:28.737Z,89.65
2022-10-15T06:57:00.000Z,89.56
2022-10-15T06:59:31.290Z,89.18
2022-10-15T07:02:02.682Z,89.55
2022-10-15T07:04:34.109Z,89.49
2022-10-15T07:07:05.834Z,89.31
2022-10-15T07:09:37.290Z,89.15
2022-10-15T07:12:09.131Z,89.05
2022-10-15T07:14:42.405Z,88.83
2022-10-15T07:17:13.982Z,88.94
2022-10-15T07:19:45.740Z,88.83
2022-10-15T07:22:17.170Z,88.77
2022-10-15T07:24:48.421Z,88.26
2022-10-15T07:27:20.673Z,88.59
2022-10-15T07:29:52.088Z,88.26
2022-10-15T07:32:23.708Z,88.05
2022-10-15T07:34:55.167Z,88.05
2022-10-15T07:37:26.725Z,88.31
2022-10-15T07:39:58.008Z,87.96
2022-10-15T07:42:29.261Z,87.17
2022-10-15T07:45:00.592Z,87.92
2022-10-15T07:47:31.879Z,87.52
2022-10-15T07:50:03.204Z,87.89
2022-10-15T07:52:34.551Z,87.73
2022-10-15T07:55:07.163Z,87.44
2022-10-15T07:57:39.029Z,87.53
2022-10-15T08:00:10.935Z,87.53
2022-10-15T08:02:42.251Z,87.31
2022-10-15T08:05:13.537Z,87.14
2022-10-15T08:07:44.863Z,87.43
2022-10-15T08:10:16.298Z,86.66
2022-10-15T08:12:47.558Z,86.58
2022-10-15T08:15:19.024Z,86.47
2022-10-15T08:17:50.297Z,86.15
2022-10-15T08:20:21.633Z,85.97
2022-10-15T08:22:52.938Z,85.78
2022-10-15T08:25:24.657Z,85.70
2022-10-15T08:27:56.378Z,85.71
2022-10-15T08:30:27.844Z,85.85
2022-10-15T08:32:59.099Z,85.23
2022-10-15T08:35:35.162Z,85.73
2022-10-15T08:38:06.370Z,85.39
2022-10-15T08:40:38.380Z,86.40
2022-10-15T08:43:39.042Z,86.08
2022-10-15T08:48:57.957Z,85.99
2022-10-15T08:51:44.173Z,85.75
2022-10-15T08:54:18.503Z,85.53
2022-10-15T08:57:22.234Z,84.72
2022-10-15T09:00:05.218Z,84.86
2022-10-15T09:02:58.002Z,83.92
2022-10-15T09:05:42.902Z,83.68
2022-10-15T09:08:45.335Z,83.62
2022-10-15T09:11:43.986Z,83.82
2022-10-15T09:14:27.505Z,83.36
2022-10-15T09:17:04.392Z,83.37
2022-10-15T09:19:37.578Z,83.26
2022-10-15T09:22:14.743Z,83.22
2022-10-15T09:24:46.354Z,82.99
2022-10-15T09:27:34.909Z,82.64
2022-10-15T09:30:30.222Z,82.50
2022-10-15T09:33:17.740Z,82.91
2022-10-15T09:35:56.784Z,82.77
2022-10-15T09:38:53.479Z,82.51
2022-10-15T09:42:06.545Z,82.32
2022-10-15T09:44:41.644Z,82.97
2022-10-15T09:47:31.140Z,81.69
2022-10-15T09:50:07.556Z,81.50
2022-10-15T09:53:09.791Z,80.99
2022-10-15T09:55:47.579Z,81.37
2022-10-15T09:58:25.738Z,81.50
2022-10-15T10:01:04.603Z,81.28
2022-10-15T10:03:36.967Z,80.96
2022-10-15T10:06:13.686Z,80.16
2022-10-15T10:08:54.385Z,79.81
2022-10-15T10:11:27.028Z,79.26
2022-10-15T10:14:00.681Z,79.25
2022-10-15T10:16:33.715Z,78.97
2022-10-15T10:19:15.448Z,78.09
2022-10-15T10:21:46.767Z,78.01
2022-10-15T10:24:25.877Z,77.65
2022-10-15T10:26:58.226Z,77.98
2022-10-15T10:29:40.192Z,77.45
2022-10-15T10:32:21.596Z,77.05
2022-10-15T10:34:53.990Z,76.97
2022-10-15T10:37:26.063Z,76.79
2022-10-15T10:40:00.411Z,76.07
2022-10-15T10:42:34.430Z,75.59
2022-10-15T10:45:22.307Z,74.91
2022-10-15T10:47:53.948Z,75.41
2022-10-15T10:50:40.545Z,74.42
2022-10-15T10:53:21.810Z,74.77
2022-10-15T10:55:55.350Z,74.60
2022-10-15T10:58:30.930Z,74.25
2022-10-15T11:01:02.236Z,73.82
2022-10-15T11:03:38.292Z,73.88
2022-10-15T11:06:21.865Z,74.21
2022-10-15T11:09:06.922Z,74.24
2022-10-15T11:11:48.797Z,73.84
2022-10-15T11:14:51.851Z,73.20
2022-10-15T11:17:44.174Z,73.54
2022-10-15T11:20:44.233Z,72.97
2022-10-15T11:23:47.031Z,73.19
2022-10-15T11:26:52.066Z,72.97
2022-10-15T11:29:49.525Z,72.96
2022-10-15T11:33:07.032Z,71.88
2022-10-15T11:36:05.906Z,71.21
2022-10-15T11:39:16.308Z,71.08
2022-10-15T11:42:24.006Z,70.94
2022-10-15T11:45:01.277Z,71.38
2022-10-15T11:47:58.153Z,70.31
2022-10-15T11:50:45.568Z,71.09
2022-10-15T11:53:38.568Z,72.15
2022-10-15T11:56:18.898Z,72.21
2022-10-15T11:59:19.457Z,70.64
2022-10-15T12:02:05.081Z,70.88
2022-10-15T12:04:44.285Z,70.83
2022-10-15T12:07:21.825Z,69.91
2022-10-15T12:09:59.813Z,69.42
2022-10-15T12:12:41.265Z,69.28
2022-10-15T12:15:39.306Z,68.95
2022-10-15T12:18:29.158Z,69.12
2022-10-15T12:21:00.549Z,69.19
2022-10-15T12:23:34.563Z,69.02
2022-10-15T12:26:28.033Z,68.02
2022-10-15T12:29:03.256Z,68.47
2022-10-15T12:31:49.888Z,67.83
2022-10-15T12:34:28.544Z,67.93
2022-10-15T12:37:03.306Z,68.00
2022-10-15T12:39:51.696Z,67.40
2022-10-15T12:42:39.292Z,67.78
2022-10-15T12:45:22.189Z,68.25
2022-10-15T12:47:55.930Z,68.21
2022-10-15T12:50:31.058Z,68.40
2022-10-15T12:53:32.592Z,67.85
2022-10-15T12:56:13.589Z,68.64
2022-10-15T12:58:47.508Z,68.58
2022-10-15T13:01:18.766Z,68.46
2022-10-15T13:03:50.281Z,68.15
2022-10-15T13:06:21.789Z,68.34
2022-10-15T13:09:20.870Z,68.00
2022-10-15T13:11:54.210Z,68.41
2022-10-15T13:14:33.456Z,68.38
2022-10-15T13:17:14.647Z,68.53
2022-10-15T13:20:08.043Z,68.07
2022-10-15T13:22:39.324Z,69.06
2022-10-15T13:25:17.780Z,69.29
2022-10-15T13:27:49.024Z,69.43
2022-10-15T13:30:20.350Z,69.64
2022-10-15T13:32:53.908Z,69.17
2022-10-15T13:35:29.527Z,69.05
2022-10-15T13:38:03.355Z,68.78
2022-10-15T13:40:34.769Z,68.60
2022-10-15T13:43:17.292Z,68.73
2022-10-15T13:45:53.578Z,68.32
2022-10-15T13:48:27.858Z,68.38
2022-10-15T13:51:04.324Z,68.08
2022-10-15T13:53:40.084Z,67.93
2022-10-15T13:56:29.818Z,68.03
2022-10-15T13:59:02.381Z,68.25
2022-10-15T14:01:34.814Z,67.87
2022-10-15T14:04:16.995Z,68.23
2022-10-15T14:07:04.193Z,68.24
2022-10-15T14:09:38.362Z,68.11
2022-10-15T14:12:11.334Z,68.01
2022-10-15T14:14:46.735Z,67.88
2022-10-15T14:17:24.109Z,67.83
2022-10-15T14:20:25.895Z,68.29
2022-10-15T14:22:53.516Z,68.98
2022-10-15T14:25:26.111Z,69.11
2022-10-15T14:27:57.485Z,69.84
2022-10-15T14:30:33.013Z,69.36
2022-10-15T14:33:04.552Z,69.72
2022-10-15T14:35:37.176Z,70.45
2022-10-15T14:38:08.381Z,70.41
2022-10-15T14:40:39.664Z,69.88
2022-10-15T14:43:17.048Z,70.31
2022-10-15T14:45:51.417Z,69.98
2022-10-15T14:48:37.130Z,70.03
2022-10-15T14:51:23.804Z,70.50
2022-10-15T14:53:55.511Z,70.26
2022-10-15T14:56:32.964Z,70.37
2022-10-15T14:59:04.469Z,70.66
2022-10-15T15:01:35.829Z,70.31
2022-10-15T15:04:38.081Z,70.05
2022-10-15T15:07:16.433Z,70.93
2022-10-15T15:09:49.117Z,71.98
2022-10-15T15:12:27.793Z,72.24
2022-10-15T15:14:59.717Z,73.27
2022-10-15T15:17:31.190Z,73.73
2022-10-15T15:22:40.253Z,74.78
2022-10-15T15:25:28.209Z,75.23
2022-10-15T15:28:00.595Z,76.06
2022-10-15T15:30:34.350Z,76.12
2022-10-15T15:33:05.746Z,77.09
2022-10-15T15:35:44.466Z,77.43
2022-10-15T15:38:16.096Z,77.48
2022-10-15T15:40:48.805Z,78.15
2022-10-15T15:43:20.148Z,78.43
2022-10-15T15:45:51.487Z,78.62
2022-10-15T15:48:22.821Z,78.78
2022-10-15T15:50:55.769Z,79.38
2022-10-15T15:53:27.115Z,79.96
2022-10-15T15:55:58.558Z,79.93
2022-10-15T15:58:29.818Z,80.36
2022-10-15T16:01:01.094Z,80.44
2022-10-15T16:03:32.395Z,81.07
2022-10-15T16:06:07.435Z,80.86
2022-10-15T16:08:38.751Z,81.35
2022-10-15T16:11:10.058Z,81.83
2022-10-15T16:13:42.960Z,82.06
2022-10-15T16:16:14.218Z,83.01
2022-10-15T16:18:45.574Z,83.32
2022-10-15T16:21:24.783Z,83.68
2022-10-15T16:23:56.113Z,83.96
2022-10-15T16:26:27.613Z,84.31
2022-10-15T16:28:59.498Z,84.39
2022-10-15T16:31:33.166Z,84.74
2022-10-15T16:34:04.769Z,85.04
2022-10-15T16:36:36.298Z,85.18
2022-10-15T16:39:07.684Z,85.59
2022-10-15T16:41:38.976Z,85.84
2022-10-15T16:44:10.225Z,85.59
2022-10-15T16:46:41.542Z,86.04
2022-10-15T16:49:12.822Z,86.11
2022-10-15T16:51:44.090Z,86.03
2022-10-15T16:54:15.676Z,85.91
2022-10-15T16:56:50.460Z,86.56
2022-10-15T16:59:24.231Z,86.67
2022-10-15T17:01:55.807Z,86.84
2022-10-15T17:04:27.360Z,86.91
2022-10-15T17:06:58.662Z,86.94
2022-10-15T17:09:31.054Z,87.34
2022-10-15T17:12:02.323Z,87.49
2022-10-15T17:14:33.634Z,87.79
2022-10-15T17:17:05.024Z,88.37
2022-10-15T17:19:36.338Z,88.21
2022-10-15T17:22:07.611Z,88.28
2022-10-15T17:24:39.275Z,88.47
2022-10-15T17:27:10.585Z,88.66
2022-10-15T17:29:42.005Z,88.75
2022-10-15T17:32:13.282Z,88.94
2022-10-15T17:34:44.680Z,88.93
2022-10-15T17:37:16.092Z,89.23
2022-10-15T17:39:47.501Z,89.37
2022-10-15T17:42:19.109Z,89.57
2022-10-15T17:44:50.718Z,89.78
2022-10-15T17:47:22.051Z,90.01
2022-10-15T17:49:53.342Z,89.71
2022-10-15T17:52:24.946Z,89.67
2022-10-15T17:54:56.219Z,89.87
2022-10-15T17:57:28.102Z,90.29
2022-10-15T17:59:59.999Z,90.74
2022-10-15T18:02:31.361Z,90.32
2022-10-15T18:05:02.792Z,90.79
2022-10-15T18:07:34.752Z,90.76
2022-10-15T18:10:07.290Z,90.55
2022-10-15T18:12:38.544Z,90.67
2022-10-15T18:15:10.401Z,90.68
2022-10-15T18:17:41.676Z,90.63
2022-10-15T18:20:14.396Z,90.72
2022-10-15T18:22:45.688Z,91.26
2022-10-15T18:25:17.349Z,91.47
2022-10-15T18:27:48.596Z,91.48
2022-10-15T18:30:19.947Z,91.93
2022-10-15T18:32:53.235Z,91.62
2022-10-15T18:35:27.191Z,91.67
2022-10-15T18:37:58.486Z,91.51
2022-10-15T18:40:40.892Z,91.45
2022-10-15T18:43:15.034Z,91.67
2022-10-15T18:45:47.605Z,92.08
2022-10-15T18:48:18.980Z,91.96
2022-10-15T18:50:52.673Z,92.07
2022-10-15T18:53:25.545Z,92.22
2022-10-15T18:55:56.861Z,92.61
2022-10-15T18:58:28.149Z,92.55
2022-10-15T19:01:39.103Z,92.80
2022-10-15T19:04:13.792Z,93.27
2022-10-15T19:06:48.405Z,93.69
2022-10-15T19:09:26.193Z,93.48
2022-10-15T19:11:58.465Z,93.10
2022-10-15T19:14:29.821Z,92.98
2022-10-15T19:17:01.186Z,93.01
2022-10-15T19:19:32.601Z,93.04
2022-10-15T19:22:04.189Z,93.32
2022-10-15T19:24:35.541Z,93.17
2022-10-15T19:27:06.955Z,92.75
2022-10-15T19:29:39.163Z,93.69
2022-10-15T19:32:10.898Z,93.92
2022-10-15T19:34:42.303Z,93.81
2022-10-15T19:37:13.545Z,93.29
2022-10-15T19:39:48.220Z,93.71
2022-10-15T19:42:19.529Z,93.66
2022-10-15T19:44:50.797Z,93.11
2022-10-15T19:47:22.089Z,94.26
2022-10-15T19:49:54.906Z,94.44
2022-10-15T19:52:26.189Z,94.34
2022-10-15T19:54:57.535Z,95.11
2022-10-15T19:57:28.924Z,94.87
2022-10-15T20:00:01.995Z,95.45
2022-10-15T20:02:33.254Z,94.93
2022-10-15T20:05:04.948Z,94.97
2022-10-15T20:07:36.496Z,94.88
2022-10-15T20:10:08.593Z,94.64
2022-10-15T20:12:40.136Z,94.79
2022-10-15T20:15:11.693Z,94.68
2022-10-15T20:17:43.360Z,94.42
2022-10-15T20:20:15.082Z,94.78
2022-10-15T20:22:46.453Z,95.06
2022-10-15T20:25:17.728Z,95.02
2022-10-15T20:27:49.025Z,94.97
2022-10-15T20:30:20.434Z,94.93
2022-10-15T20:32:51.681Z,94.43
2022-10-15T20:35:23.163Z,94.68
2022-10-15T20:37:54.409Z,94.86
2022-10-15T20:40:25.815Z,94.82
2022-10-15T20:42:57.130Z,94.78
2022-10-15T20:45:34.415Z,94.78
2022-10-15T20:48:07.682Z,94.51
2022-10-15T20:50:39.138Z,94.49
2022-10-15T20:53:10.531Z,94.45
2022-10-15T20:55:41.902Z,94.49
2022-10-15T20:58:13.416Z,94.64
2022-10-15T21:00:44.788Z,94.49
2022-10-15T21:03:16.045Z,94.87
2022-10-15T21:05:47.309Z,93.99
2022-10-15T21:08:18.651Z,94.17
2022-10-15T21:10:50.076Z,94.07
2022-10-15T21:13:21.812Z,94.02
2022-10-15T21:15:58.118Z,93.91
2022-10-15T21:18:29.622Z,93.93
2022-10-15T21:21:12.196Z,93.68
2022-10-15T21:23:43.719Z,93.72
2022-10-15T21:26:17.012Z,93.72
2022-10-15T21:28:48.370Z,93.73
2022-10-15T21:31:19.665Z,93.34
2022-10-15T21:33:51.588Z,93.69
2022-10-15T21:36:27.854Z,93.53
2022-10-15T21:39:02.266Z,93.68
2022-10-15T21:41:36.166Z,93.27
2022-10-15T21:44:08.569Z,93.26
2022-10-15T21:46:41.323Z,93.52
2022-10-15T21:49:13.839Z,93.24
2022-10-15T21:51:45.320Z,93.14
2022-10-15T21:54:16.606Z,92.97
2022-10-15T21:56:47.887Z,92.70
2022-10-15T21:59:19.179Z,93.15
2022-10-15T22:01:50.483Z,93.23
2022-10-15T22:04:21.833Z,92.99
2022-10-15T22:06:53.090Z,92.46
2022-10-15T22:09:24.452Z,92.71
2022-10-15T22:11:55.725Z,92.52
2022-10-15T22:14:27.009Z,92.76
2022-10-15T22:16:58.390Z,92.73
2022-10-15T22:19:29.641Z,92.57
2022-10-15T22:22:00.972Z,93.01
2022-10-15T22:24:32.760Z,92.36
2022-10-15T22:27:04.145Z,92.40
2022-10-15T22:29:35.619Z,92.80
2022-10-15T22:32:06.957Z,92.63
2022-10-15T22:34:38.220Z,92.48
2022-10-15T22:37:09.581Z,92.73
2022-10-15T22:39:40.902Z,92.80
2022-10-15T22:42:12.302Z,92.77
2022-10-15T22:44:43.561Z,92.96
2022-10-15T22:47:14.855Z,92.68
2022-10-15T22:49:46.121Z,92.61
2022-10-15T22:52:17.382Z,92.54
2022-10-15T22:54:50.150Z,93.02
2022-10-15T22:57:21.418Z,92.21
2022-10-15T22:59:55.924Z,93.16
2022-10-15T23:02:29.931Z,93.10
2022-10-15T23:05:01.229Z,93.11
2022-10-15T23:07:32.496Z,93.18
2022-10-15T23:10:04.266Z,93.11
2022-10-15T23:12:38.647Z,93.30
2022-10-15T23:15:10.093Z,93.16
2022-10-15T23:17:41.437Z,93.24
2022-10-15T23:20:12.714Z,93.36
2022-10-15T23:22:43.986Z,93.13
2022-10-15T23:25:15.374Z,93.12
2022-10-15T23:27:46.726Z,92.82
2022-10-15T23:30:24.732Z,93.06
2022-10-15T23:32:56.419Z,93.07
2022-10-15T23:35:27.759Z,93.23
2022-10-15T23:37:59.070Z,93.06
2022-10-15T23:40:30.545Z,93.02
2022-10-15T23:43:02.203Z,93.08
2022-10-15T23:45:35.741Z,92.90
2022-10-15T23:48:09.317Z,92.98
2022-10-15T23:50:40.637Z,92.80
2022-10-15T23:53:12.076Z,92.93
2022-10-15T23:55:43.635Z,92.79
2022-10-15T23:58:15.201Z,92.79
